Time;durP1;ratioP1;P1;durP2;ratioP2;P2;SDS_P1;SDS_P2;PMS_P1;PMS_P2;Temp;Humidity;BMP_temperature;BMP_pressure;BME280_temperature;BME280_humidity;BME280_pressure;Samples;Min_cycle;Max_cycle;Signal;HPM_P1;HPM_P2
2024/03/23 00:00:37;;;;;;;38.67;19.55;;;;;;;;;;5013848;28;20034;-63
2024/03/23 00:03:03;;;;;;;34.03;18.45;;;;;;;;;;5015101;28;20042;-62
2024/03/23 00:05:29;;;;;;;35.17;19.10;;;;;;;;;;5033718;28;20091;-62
2024/03/23 00:07:58;;;;;;;37.40;19.35;;;;;;;;;;5033115;28;20041;-62
2024/03/23 00:10:24;;;;;;;40.53;20.73;;;;;;;;;;5033617;28;20064;-63
2024/03/23 00:12:50;;;;;;;38.78;18.38;;;;;;;;;;5033367;28;20033;-61
2024/03/23 00:15:16;;;;;;;35.92;19.52;;;;;;;;;;5033406;28;20034;-62
2024/03/23 00:17:46;;;;;;;36.75;18.88;;;;;;;;;;5033215;28;20033;-63
2024/03/23 00:20:12;;;;;;;37.28;19.67;;;;;;;;;;5031766;28;20029;-62
2024/03/23 00:22:38;;;;;;;37.03;19.50;;;;;;;;;;5031973;28;20530;-64
2024/03/23 00:25:04;;;;;;;37.88;19.48;;;;;;;;;;5033308;28;20041;-62
2024/03/23 00:27:31;;;;;;;37.28;19.33;;;;;;;;;;5031657;28;20045;-62
2024/03/23 00:29:57;;;;;;;37.95;20.25;;;;;;;;;;5033052;28;20128;-62
2024/03/23 00:32:23;;;;;;;34.78;18.23;;;;;;;;;;5032979;28;20048;-62
2024/03/23 00:34:49;;;;;;;36.50;18.25;;;;;;;;;;5032919;28;20043;-62
2024/03/23 00:37:15;;;;;;;36.15;18.98;;;;;;;;;;5031586;28;20038;-61
2024/03/23 00:39:42;;;;;;;37.38;19.60;;;;;;;;;;5032919;28;20454;-63
2024/03/23 00:42:08;;;;;;;41.53;19.85;;;;;;;;;;5030450;28;20099;-62
2024/03/23 00:44:34;;;;;;;36.85;19.83;;;;;;;;;;5031388;28;20061;-61
2024/03/23 00:47:00;;;;;;;37.95;19.35;;;;;;;;;;5032558;28;20033;-61
2024/03/23 00:49:26;;;;;;;40.03;19.67;;;;;;;;;;5032557;28;20099;-62
2024/03/23 00:51:52;;;;;;;34.38;19.38;;;;;;;;;;5031162;28;20042;-62
2024/03/23 00:54:18;;;;;;;34.63;19.20;;;;;;;;;;5030933;28;20478;-62
2024/03/23 00:56:43;;;;;;;36.72;19.25;;;;;;;;;;5032613;28;20128;-62
2024/03/23 00:59:09;;;;;;;40.17;20.10;;;;;;;;;;5032437;28;20054;-62
2024/03/23 01:01:35;;;;;;;44.00;20.75;;;;;;;;;;5031002;28;20045;-62
2024/03/23 01:04:00;;;;;;;39.58;20.55;;;;;;;;;;5030931;28;20057;-62
2024/03/23 01:06:26;;;;;;;41.17;21.20;;;;;;;;;;5032114;28;20443;-62
2024/03/23 01:08:52;;;;;;;34.72;19.60;;;;;;;;;;5030563;28;20037;-61
2024/03/23 01:11:18;;;;;;;39.95;20.50;;;;;;;;;;5032253;28;20080;-62
2024/03/23 01:13:43;;;;;;;39.05;19.20;;;;;;;;;;5032045;28;20491;-62
2024/03/23 01:16:09;;;;;;;39.08;20.50;;;;;;;;;;5013992;28;20080;-63
2024/03/23 01:18:34;;;;;;;39.42;20.70;;;;;;;;;;5047051;28;20065;-63
2024/03/23 01:21:00;;;;;;;41.17;20.88;;;;;;;;;;5032107;28;20044;-62
2024/03/23 01:23:25;;;;;;;40.15;20.45;;;;;;;;;;5013965;28;20030;-62
2024/03/23 01:25:53;;;;;;;42.33;20.95;;;;;;;;;;5030332;28;20033;-63
2024/03/23 01:28:19;;;;;;;38.92;20.77;;;;;;;;;;5030445;28;20124;-62
2024/03/23 01:30:44;;;;;;;42.35;21.23;;;;;;;;;;5031750;28;20140;-63
2024/03/23 01:33:10;;;;;;;41.20;20.73;;;;;;;;;;5030144;28;20128;-62
2024/03/23 01:35:36;;;;;;;41.50;21.20;;;;;;;;;;5030806;28;20046;-63
2024/03/23 01:38:01;;;;;;;39.15;21.05;;;;;;;;;;5030480;28;20037;-61
2024/03/23 01:40:31;;;;;;;40.13;20.15;;;;;;;;;;5030458;28;20518;-62
2024/03/23 01:42:57;;;;;;;36.00;20.30;;;;;;;;;;5031332;28;20507;-62
2024/03/23 01:45:23;;;;;;;38.45;20.00;;;;;;;;;;5031889;28;20287;-63
2024/03/23 01:47:49;;;;;;;41.25;20.63;;;;;;;;;;5031609;28;20101;-61
2024/03/23 01:50:15;;;;;;;35.35;19.33;;;;;;;;;;5030126;28;20136;-62
2024/03/23 01:52:41;;;;;;;42.90;21.15;;;;;;;;;;5030072;28;20033;-62
2024/03/23 01:55:07;;;;;;;37.42;19.48;;;;;;;;;;5031047;28;20526;-62
2024/03/23 01:57:32;;;;;;;41.10;21.35;;;;;;;;;;5031201;28;20045;-62
2024/03/23 01:59:58;;;;;;;42.17;21.63;;;;;;;;;;5031598;28;20037;-62
2024/03/23 02:02:31;;;;;;;40.63;20.20;;;;;;;;;;5014832;28;20136;-62
2024/03/23 02:04:57;;;;;;;42.50;21.77;;;;;;;;;;5031435;28;20124;-62
2024/03/23 02:07:23;;;;;;;42.00;19.95;;;;;;;;;;5031320;28;20466;-62
2024/03/23 02:09:49;;;;;;;40.58;20.02;;;;;;;;;;5031066;28;20041;-62
2024/03/23 02:12:15;;;;;;;40.60;21.27;;;;;;;;;;5031595;28;20037;-62
2024/03/23 02:14:41;;;;;;;38.53;21.08;;;;;;;;;;5031695;28;20116;-62
2024/03/23 02:17:07;;;;;;;42.28;20.60;;;;;;;;;;5031580;28;20124;-62
2024/03/23 02:19:32;;;;;;;39.17;20.50;;;;;;;;;;5030170;28;20041;-62
2024/03/23 02:21:58;;;;;;;42.15;20.38;;;;;;;;;;5030134;28;20038;-63
2024/03/23 02:24:24;;;;;;;39.75;20.58;;;;;;;;;;5031153;28;20549;-62
2024/03/23 02:26:49;;;;;;;39.40;21.25;;;;;;;;;;5031497;28;20061;-61
2024/03/23 02:29:15;;;;;;;40.58;21.25;;;;;;;;;;5030059;28;20048;-61
2024/03/23 02:31:40;;;;;;;34.00;19.60;;;;;;;;;;5031182;28;20167;-63
2024/03/23 02:34:06;;;;;;;42.55;20.08;;;;;;;;;;5013352;28;20038;-62
2024/03/23 02:36:32;;;;;;;43.33;22.05;;;;;;;;;;5031382;28;20042;-62
2024/03/23 02:38:57;;;;;;;37.05;20.85;;;;;;;;;;5031300;28;20037;-63
2024/03/23 02:41:23;;;;;;;39.08;21.17;;;;;;;;;;5031403;28;20077;-62
2024/03/23 02:43:49;;;;;;;37.85;20.02;;;;;;;;;;5029791;28;20037;-61
2024/03/23 02:46:15;;;;;;;41.15;20.63;;;;;;;;;;5029788;28;20037;-63
2024/03/23 02:48:41;;;;;;;41.08;20.25;;;;;;;;;;5031178;28;20060;-62
2024/03/23 02:51:07;;;;;;;40.28;20.85;;;;;;;;;;5029645;28;20426;-61
2024/03/23 02:53:32;;;;;;;40.22;20.40;;;;;;;;;;5029702;28;20388;-62
2024/03/23 02:55:58;;;;;;;38.45;20.15;;;;;;;;;;5030997;28;20095;-62
2024/03/23 02:58:24;;;;;;;42.97;20.67;;;;;;;;;;5013296;28;20531;-62
2024/03/23 03:00:49;;;;;;;44.72;21.75;;;;;;;;;;5030045;28;20045;-62
2024/03/23 03:03:15;;;;;;;40.53;21.65;;;;;;;;;;5030962;28;20035;-62
2024/03/23 03:05:41;;;;;;;40.40;21.35;;;;;;;;;;5033579;28;20128;-64
2024/03/23 03:08:06;;;;;;;39.90;20.88;;;;;;;;;;5034897;28;20040;-62
2024/03/23 03:10:34;;;;;;;45.40;22.25;;;;;;;;;;5034947;28;20047;-62
2024/03/23 03:13:00;;;;;;;43.65;21.77;;;;;;;;;;5033234;28;20030;-63
2024/03/23 03:15:26;;;;;;;40.50;20.75;;;;;;;;;;5033619;28;20036;-62
2024/03/23 03:17:51;;;;;;;44.75;21.77;;;;;;;;;;5033212;28;20130;-62
2024/03/23 03:20:17;;;;;;;45.97;22.55;;;;;;;;;;5033300;28;20036;-61
2024/03/23 03:22:43;;;;;;;40.08;21.45;;;;;;;;;;5033354;28;20168;-62
2024/03/23 03:25:09;;;;;;;43.60;21.40;;;;;;;;;;5034741;28;20447;-62
2024/03/23 03:27:35;;;;;;;45.97;22.52;;;;;;;;;;5033180;28;20416;-62
2024/03/23 03:30:05;;;;;;;45.30;22.48;;;;;;;;;;5034166;28;20052;-62
2024/03/23 03:32:32;;;;;;;41.00;21.20;;;;;;;;;;5034191;28;20522;-61
2024/03/23 03:34:57;;;;;;;42.85;22.02;;;;;;;;;;5033292;28;20036;-63
2024/03/23 03:37:23;;;;;;;43.65;22.40;;;;;;;;;;5033301;28;20037;-63
2024/03/23 03:39:49;;;;;;;44.92;21.48;;;;;;;;;;5034304;28;20533;-62
2024/03/23 03:42:15;;;;;;;43.22;21.77;;;;;;;;;;5034169;28;20029;-62
2024/03/23 03:44:40;;;;;;;40.42;20.80;;;;;;;;;;5032948;28;20041;-62
2024/03/23 03:47:06;;;;;;;45.35;22.08;;;;;;;;;;5016594;28;20100;-61
2024/03/23 03:49:32;;;;;;;46.28;22.80;;;;;;;;;;5034169;28;20037;-64
2024/03/23 03:51:57;;;;;;;43.08;22.67;;;;;;;;;;5034138;28;20450;-61
2024/03/23 03:54:23;;;;;;;47.78;22.63;;;;;;;;;;5033788;28;20068;-61
2024/03/23 03:56:50;;;;;;;49.10;22.83;;;;;;;;;;5033385;28;20585;-62
2024/03/23 03:59:15;;;;;;;44.25;20.98;;;;;;;;;;5055272;28;20108;-62
2024/03/23 04:01:41;;;;;;;42.28;22.23;;;;;;;;;;5023111;28;20069;-64
2024/03/23 04:04:07;;;;;;;45.83;21.58;;;;;;;;;;5026622;28;20048;-63
2024/03/23 04:06:33;;;;;;;45.60;21.25;;;;;;;;;;5033198;28;20518;-63
2024/03/23 04:08:59;;;;;;;42.15;22.02;;;;;;;;;;5033425;28;20038;-62
2024/03/23 04:11:25;;;;;;;41.33;21.52;;;;;;;;;;5033199;28;20095;-61
2024/03/23 04:13:50;;;;;;;45.35;23.50;;;;;;;;;;5022330;28;20032;-61
2024/03/23 04:16:29;;;;;;;44.83;22.67;;;;;;;;;;5023737;28;20084;-61
2024/03/23 04:18:54;;;;;;;46.10;22.70;;;;;;;;;;5031549;28;20480;-62
2024/03/23 04:21:21;;;;;;;46.80;23.70;;;;;;;;;;5033202;28;20036;-62
2024/03/23 04:23:46;;;;;;;37.90;21.02;;;;;;;;;;5030470;28;20025;-62
2024/03/23 04:26:12;;;;;;;45.05;23.63;;;;;;;;;;5031742;28;20029;-62
2024/03/23 04:28:38;;;;;;;46.15;23.02;;;;;;;;;;5031618;28;20034;-62
2024/03/23 04:31:04;;;;;;;42.10;22.50;;;;;;;;;;5031653;28;20087;-63
2024/03/23 04:33:29;;;;;;;42.88;21.95;;;;;;;;;;4982394;28;20033;-63
2024/03/23 04:35:55;;;;;;;47.17;22.67;;;;;;;;;;5023022;28;20400;-62
2024/03/23 04:38:21;;;;;;;41.33;21.80;;;;;;;;;;5023524;28;20087;-63
2024/03/23 04:40:54;;;;;;;49.35;23.67;;;;;;;;;;5029991;28;20029;-63
2024/03/23 04:43:19;;;;;;;43.42;22.27;;;;;;;;;;5032413;28;20510;-62
2024/03/23 04:45:45;;;;;;;38.63;21.02;;;;;;;;;;5053569;28;20041;-65
2024/03/23 04:48:11;;;;;;;44.10;21.85;;;;;;;;;;5032301;28;20037;-63
2024/03/23 04:50:37;;;;;;;42.65;21.75;;;;;;;;;;5031163;28;20053;-61
2024/03/23 04:53:03;;;;;;;39.28;22.98;;;;;;;;;;5031345;28;20388;-63
2024/03/23 04:55:29;;;;;;;43.38;23.13;;;;;;;;;;5032697;28;20069;-62
2024/03/23 04:57:54;;;;;;;41.20;21.23;;;;;;;;;;5031104;28;20511;-62
2024/03/23 05:00:20;;;;;;;39.53;21.35;;;;;;;;;;5031380;28;20144;-62
2024/03/23 05:02:46;;;;;;;42.53;21.55;;;;;;;;;;5031210;28;20545;-62
2024/03/23 05:05:12;;;;;;;39.75;20.42;;;;;;;;;;5032721;28;20495;-60
2024/03/23 05:07:37;;;;;;;37.30;19.92;;;;;;;;;;5032252;28;20041;-63
2024/03/23 05:10:03;;;;;;;35.53;19.95;;;;;;;;;;5030604;28;20103;-62
2024/03/23 05:12:29;;;;;;;35.85;20.02;;;;;;;;;;5022565;28;20045;-63
2024/03/23 05:14:54;;;;;;;35.22;19.48;;;;;;;;;;5044329;28;20051;-61
2024/03/23 05:17:20;;;;;;;37.13;19.67;;;;;;;;;;5011256;28;20046;-62
2024/03/23 05:19:46;;;;;;;39.40;20.30;;;;;;;;;;5012693;28;20068;-62
2024/03/23 05:22:11;;;;;;;35.10;18.67;;;;;;;;;;5012365;28;20049;-60
2024/03/23 05:24:37;;;;;;;33.85;18.85;;;;;;;;;;5012509;28;20048;-61
2024/03/23 05:27:02;;;;;;;34.22;19.58;;;;;;;;;;5011087;28;20404;-61
2024/03/23 05:29:29;;;;;;;33.05;18.52;;;;;;;;;;5012404;28;20087;-60
2024/03/23 05:31:56;;;;;;;40.83;19.42;;;;;;;;;;5022255;28;20046;-61
2024/03/23 05:34:22;;;;;;;33.15;18.20;;;;;;;;;;5032109;28;20041;-61
2024/03/23 05:36:49;;;;;;;35.08;18.80;;;;;;;;;;5014297;28;20041;-63
2024/03/23 05:39:16;;;;;;;31.40;17.88;;;;;;;;;;5032105;28;20059;-63
2024/03/23 05:41:42;;;;;;;32.92;17.52;;;;;;;;;;5030799;28;20088;-64
2024/03/23 05:44:07;;;;;;;33.95;17.52;;;;;;;;;;5032022;28;20399;-64
2024/03/23 05:46:33;;;;;;;30.85;17.42;;;;;;;;;;5030715;28;20030;-63
2024/03/23 05:49:01;;;;;;;29.80;16.88;;;;;;;;;;5031711;28;20530;-64
2024/03/23 05:51:27;;;;;;;29.23;15.68;;;;;;;;;;5030352;28;20048;-64
2024/03/23 05:53:53;;;;;;;29.48;15.93;;;;;;;;;;5013534;28;20066;-64
2024/03/23 05:56:19;;;;;;;31.33;17.70;;;;;;;;;;5031826;28;20049;-64
2024/03/23 05:58:46;;;;;;;29.52;16.13;;;;;;;;;;5031642;28;20114;-63
2024/03/23 06:01:12;;;;;;;28.85;17.00;;;;;;;;;;5031760;28;20044;-62
2024/03/23 06:03:38;;;;;;;26.92;15.38;;;;;;;;;;4993979;28;20042;-62
2024/03/23 06:06:04;;;;;;;24.25;15.05;;;;;;;;;;4994500;28;20038;-65
2024/03/23 06:08:29;;;;;;;23.48;14.68;;;;;;;;;;4994115;28;20030;-62
2024/03/23 06:10:55;;;;;;;27.35;16.20;;;;;;;;;;5010235;28;20050;-65
2024/03/23 06:13:24;;;;;;;24.48;15.02;;;;;;;;;;5011307;28;20029;-63
2024/03/23 06:15:50;;;;;;;26.88;14.15;;;;;;;;;;5011426;28;20409;-63
2024/03/23 06:18:16;;;;;;;24.60;14.13;;;;;;;;;;4994096;28;20132;-63
2024/03/23 06:20:42;;;;;;;24.70;13.70;;;;;;;;;;5009887;28;20124;-63
2024/03/23 06:23:08;;;;;;;26.92;14.13;;;;;;;;;;5010737;28;20041;-63
2024/03/23 06:25:33;;;;;;;24.17;13.98;;;;;;;;;;5009889;28;20278;-62
2024/03/23 06:28:01;;;;;;;23.80;13.90;;;;;;;;;;5011623;28;20033;-62
2024/03/23 06:30:26;;;;;;;23.48;13.45;;;;;;;;;;5010393;28;20046;-63
2024/03/23 06:32:53;;;;;;;19.83;12.60;;;;;;;;;;5026249;28;20033;-63
2024/03/23 06:35:18;;;;;;;19.90;12.20;;;;;;;;;;5029958;28;20392;-64
2024/03/23 06:37:44;;;;;;;18.15;12.00;;;;;;;;;;5031083;28;20072;-66
2024/03/23 06:40:10;;;;;;;21.80;13.35;;;;;;;;;;5033241;28;20025;-62
2024/03/23 06:42:36;;;;;;;19.23;11.88;;;;;;;;;;5035005;28;20120;-63
2024/03/23 06:45:04;;;;;;;21.15;12.88;;;;;;;;;;5033484;28;20090;-64
2024/03/23 06:47:30;;;;;;;20.25;13.25;;;;;;;;;;5029626;28;20041;-67
2024/03/23 06:49:56;;;;;;;18.67;12.50;;;;;;;;;;5035314;28;20188;-63
2024/03/23 06:52:22;;;;;;;20.13;13.07;;;;;;;;;;5035046;28;20073;-62
2024/03/23 06:54:47;;;;;;;20.55;12.27;;;;;;;;;;5034648;28;20490;-64
2024/03/23 06:57:13;;;;;;;19.17;12.15;;;;;;;;;;5034809;28;20046;-62
2024/03/23 06:59:39;;;;;;;19.55;11.73;;;;;;;;;;5066876;28;20168;-63
2024/03/23 07:02:05;;;;;;;17.30;10.73;;;;;;;;;;5034748;28;20143;-64
2024/03/23 07:04:31;;;;;;;18.08;11.38;;;;;;;;;;5033305;28;20510;-65
2024/03/23 07:06:56;;;;;;;19.73;11.85;;;;;;;;;;5034932;28;20041;-67
2024/03/23 07:09:25;;;;;;;16.67;10.90;;;;;;;;;;5033398;28;20495;-63
2024/03/23 07:11:53;;;;;;;18.70;11.37;;;;;;;;;;5034510;28;20127;-64
2024/03/23 07:14:19;;;;;;;17.05;10.75;;;;;;;;;;5033265;28;20060;-63
2024/03/23 07:16:44;;;;;;;16.40;10.32;;;;;;;;;;5034716;28;20037;-67
2024/03/23 07:19:10;;;;;;;21.80;11.77;;;;;;;;;;5034617;28;20037;-65
2024/03/23 07:21:35;;;;;;;13.73;10.55;;;;;;;;;;5033098;28;20507;-68
2024/03/23 07:24:01;;;;;;;17.48;10.77;;;;;;;;;;5000257;28;20053;-65
2024/03/23 07:26:27;;;;;;;15.40;10.38;;;;;;;;;;5016668;28;20036;-65
2024/03/23 07:28:52;;;;;;;17.85;10.85;;;;;;;;;;5034301;28;20029;-64
2024/03/23 07:31:18;;;;;;;20.98;10.65;;;;;;;;;;5034516;28;20053;-65
2024/03/23 07:33:48;;;;;;;16.90;10.70;;;;;;;;;;5032839;28;20036;-65
2024/03/23 07:36:14;;;;;;;14.90;9.98;;;;;;;;;;5034468;28;20038;-66
2024/03/23 07:38:44;;;;;;;16.98;10.50;;;;;;;;;;5033046;28;20110;-64
2024/03/23 07:41:11;;;;;;;18.10;10.20;;;;;;;;;;5016288;28;20041;-65
2024/03/23 07:43:40;;;;;;;15.40;9.55;;;;;;;;;;5032658;28;20056;-65
2024/03/23 07:46:06;;;;;;;16.05;9.52;;;;;;;;;;5034342;28;20069;-67
2024/03/23 07:48:32;;;;;;;16.67;10.65;;;;;;;;;;5034024;28;20119;-61
2024/03/23 07:50:58;;;;;;;15.00;10.00;;;;;;;;;;5031677;28;20399;-66
2024/03/23 07:53:24;;;;;;;14.73;9.27;;;;;;;;;;5033189;28;20033;-67
2024/03/23 07:55:57;;;;;;;16.75;10.18;;;;;;;;;;5034023;28;20037;-66
2024/03/23 07:58:22;;;;;;;15.55;10.30;;;;;;;;;;5032798;28;20498;-70
2024/03/23 08:00:48;;;;;;;14.30;9.68;;;;;;;;;;5032546;28;20129;-67
2024/03/23 08:03:14;;;;;;;14.90;10.50;;;;;;;;;;5033498;28;20029;-64
2024/03/23 08:05:39;;;;;;;14.13;8.90;;;;;;;;;;5032498;28;20034;-65
2024/03/23 08:08:05;;;;;;;16.77;10.27;;;;;;;;;;5015878;28;20115;-64
2024/03/23 08:10:31;;;;;;;14.38;9.40;;;;;;;;;;5033763;28;20041;-64
2024/03/23 08:12:57;;;;;;;15.32;9.50;;;;;;;;;;5033471;28;20128;-63
2024/03/23 08:15:22;;;;;;;19.17;9.90;;;;;;;;;;5033803;28;20475;-63
2024/03/23 08:17:49;;;;;;;12.23;8.93;;;;;;;;;;5033289;28;20056;-64
2024/03/23 08:20:14;;;;;;;14.35;8.75;;;;;;;;;;5031573;28;20033;-64
2024/03/23 08:22:40;;;;;;;15.13;9.68;;;;;;;;;;5031255;28;20034;-63
2024/03/23 08:25:06;;;;;;;16.40;10.43;;;;;;;;;;5031493;28;20037;-62
2024/03/23 08:27:32;;;;;;;14.80;9.40;;;;;;;;;;5030846;28;20451;-64
2024/03/23 08:29:58;;;;;;;16.35;9.57;;;;;;;;;;5031157;28;20033;-65
2024/03/23 08:32:24;;;;;;;15.00;9.27;;;;;;;;;;5031230;28;20037;-65
2024/03/23 08:34:49;;;;;;;13.13;9.07;;;;;;;;;;5031117;28;20129;-64
2024/03/23 08:37:15;;;;;;;15.68;9.90;;;;;;;;;;5030551;28;20041;-65
2024/03/23 08:39:42;;;;;;;14.10;9.60;;;;;;;;;;5031781;28;20032;-63
2024/03/23 08:42:08;;;;;;;12.68;9.27;;;;;;;;;;5015223;28;20538;-65
2024/03/23 08:44:34;;;;;;;13.75;9.98;;;;;;;;;;5031750;28;20041;-64
2024/03/23 08:47:01;;;;;;;12.65;8.95;;;;;;;;;;5033023;28;20048;-65
2024/03/23 08:49:26;;;;;;;12.88;9.88;;;;;;;;;;5031712;28;20037;-64
2024/03/23 08:51:52;;;;;;;15.98;9.15;;;;;;;;;;5032957;28;20060;-67
2024/03/23 08:54:20;;;;;;;14.60;10.18;;;;;;;;;;5032621;28;20049;-63
2024/03/23 08:56:46;;;;;;;14.40;9.60;;;;;;;;;;5031663;28;20128;-64
2024/03/23 08:59:11;;;;;;;12.73;9.32;;;;;;;;;;5014493;28;20145;-64
2024/03/23 09:01:38;;;;;;;12.80;9.15;;;;;;;;;;5032019;28;20136;-64
2024/03/23 09:04:04;;;;;;;13.57;9.60;;;;;;;;;;5031857;28;20041;-65
2024/03/23 09:06:30;;;;;;;16.80;9.82;;;;;;;;;;5032628;28;20084;-64
2024/03/23 09:08:55;;;;;;;13.32;9.30;;;;;;;;;;5031918;28;20451;-65
2024/03/23 09:11:21;;;;;;;15.60;8.85;;;;;;;;;;5020875;28;20128;-64
2024/03/23 09:13:46;;;;;;;12.82;9.00;;;;;;;;;;5022694;28;20029;-62
2024/03/23 09:16:12;;;;;;;14.10;9.73;;;;;;;;;;5022359;28;20456;-67
2024/03/23 09:18:38;;;;;;;13.40;9.35;;;;;;;;;;5031671;28;20033;-65
2024/03/23 09:21:10;;;;;;;12.63;9.25;;;;;;;;;;5021422;28;20128;-63
2024/03/23 09:23:36;;;;;;;13.50;8.88;;;;;;;;;;5022983;28;20029;-64
2024/03/23 09:26:04;;;;;;;11.40;8.63;;;;;;;;;;5019682;28;20041;-64
2024/03/23 09:28:30;;;;;;;13.25;8.40;;;;;;;;;;5020389;28;20083;-64
2024/03/23 09:31:02;;;;;;;13.05;8.85;;;;;;;;;;5017415;28;20455;-65
2024/03/23 09:33:29;;;;;;;12.65;8.27;;;;;;;;;;5012521;28;20038;-64
2024/03/23 09:35:56;;;;;;;11.50;8.18;;;;;;;;;;5012267;28;20037;-63
2024/03/23 09:38:22;;;;;;;12.10;8.45;;;;;;;;;;5012397;28;20088;-65
2024/03/23 09:40:49;;;;;;;11.43;7.68;;;;;;;;;;5012220;28;20037;-64
2024/03/23 09:43:15;;;;;;;8.93;7.30;;;;;;;;;;5012015;28;20120;-65
2024/03/23 09:45:42;;;;;;;14.07;8.38;;;;;;;;;;4994327;28;20037;-67
2024/03/23 09:48:11;;;;;;;11.13;8.85;;;;;;;;;;5010679;28;20522;-65
2024/03/23 09:50:38;;;;;;;12.82;8.55;;;;;;;;;;5010148;28;20053;-68
2024/03/23 09:53:04;;;;;;;13.10;8.82;;;;;;;;;;5011637;28;20032;-63
2024/03/23 09:55:29;;;;;;;11.90;7.95;;;;;;;;;;5028181;28;20049;-62
2024/03/23 09:57:55;;;;;;;11.43;8.73;;;;;;;;;;5026503;28;20094;-64
2024/03/23 10:00:20;;;;;;;12.63;8.65;;;;;;;;;;5031954;28;20048;-64
2024/03/23 10:02:46;;;;;;;11.30;8.27;;;;;;;;;;5031418;28;20103;-66
2024/03/23 10:05:24;;;;;;;12.45;8.68;;;;;;;;;;5031685;28;20033;-63
2024/03/23 10:07:50;;;;;;;11.27;8.93;;;;;;;;;;5031358;28;20034;-62
2024/03/23 10:10:16;;;;;;;12.40;9.02;;;;;;;;;;5029315;28;20048;-62
2024/03/23 10:12:47;;;;;;;12.60;8.43;;;;;;;;;;5021902;28;20172;-63
2024/03/23 10:15:23;;;;;;;12.60;8.38;;;;;;;;;;5022231;28;20075;-62
2024/03/23 10:17:49;;;;;;;11.15;8.13;;;;;;;;;;5053325;28;20037;-65
2024/03/23 10:20:29;;;;;;;12.38;7.85;;;;;;;;;;5032761;28;20036;-62
2024/03/23 10:22:56;;;;;;;12.27;8.35;;;;;;;;;;5030881;28;20046;-63
2024/03/23 10:25:22;;;;;;;13.75;9.00;;;;;;;;;;5031121;28;20061;-66
2024/03/23 10:28:01;;;;;;;13.38;8.30;;;;;;;;;;5013606;28;20546;-63
2024/03/23 10:30:27;;;;;;;13.65;8.30;;;;;;;;;;5031638;28;20388;-63
2024/03/23 10:33:13;;;;;;;10.57;7.47;;;;;;;;;;5030850;28;20083;-63
2024/03/23 10:35:38;;;;;;;10.32;8.00;;;;;;;;;;5029355;28;20511;-64
2024/03/23 10:38:05;;;;;;;10.95;7.60;;;;;;;;;;5029109;28;20029;-64
2024/03/23 10:40:31;;;;;;;11.77;8.32;;;;;;;;;;5029513;28;20510;-65
2024/03/23 10:42:57;;;;;;;12.15;8.88;;;;;;;;;;5029376;28;20038;-64
2024/03/23 10:45:23;;;;;;;12.32;8.48;;;;;;;;;;5029281;28;20033;-64
2024/03/23 10:47:49;;;;;;;11.27;8.00;;;;;;;;;;5029093;28;20113;-65
2024/03/23 10:50:14;;;;;;;11.98;8.18;;;;;;;;;;5030088;28;20041;-64
2024/03/23 10:52:43;;;;;;;10.82;8.02;;;;;;;;;;5029995;28;20486;-65
2024/03/23 10:55:10;;;;;;;11.27;7.43;;;;;;;;;;5031411;28;20060;-64
2024/03/23 10:57:43;;;;;;;11.43;7.65;;;;;;;;;;5030926;28;20089;-64
2024/03/23 11:00:10;;;;;;;12.13;7.95;;;;;;;;;;5031264;28;20037;-63
2024/03/23 11:02:36;;;;;;;11.77;8.15;;;;;;;;;;5030716;28;20029;-63
2024/03/23 11:05:02;;;;;;;11.25;7.68;;;;;;;;;;5030768;28;20231;-62
2024/03/23 11:07:28;;;;;;;12.05;8.52;;;;;;;;;;5029511;28;20522;-62
2024/03/23 11:09:54;;;;;;;12.18;8.40;;;;;;;;;;5030960;28;20084;-61
2024/03/23 11:12:23;;;;;;;10.80;8.00;;;;;;;;;;5031016;28;20061;-65
2024/03/23 11:14:55;;;;;;;14.45;8.40;;;;;;;;;;5030223;28;20041;-63
2024/03/23 11:17:24;;;;;;;12.88;7.88;;;;;;;;;;5029417;28;20030;-63
2024/03/23 11:20:10;;;;;;;11.95;7.85;;;;;;;;;;5030454;28;20116;-63
2024/03/23 11:22:43;;;;;;;12.50;7.75;;;;;;;;;;5027061;28;20415;-63
2024/03/23 11:25:18;;;;;;;11.45;8.65;;;;;;;;;;5028343;28;20033;-64
2024/03/23 11:27:45;;;;;;;12.18;8.07;;;;;;;;;;5030336;28;20049;-64
2024/03/23 11:30:15;;;;;;;10.88;8.55;;;;;;;;;;5030879;28;20037;-62
2024/03/23 11:32:42;;;;;;;10.65;7.90;;;;;;;;;;5033780;28;20033;-64
2024/03/23 11:35:09;;;;;;;12.48;7.80;;;;;;;;;;5021716;28;20108;-63
2024/03/23 11:37:36;;;;;;;12.88;8.07;;;;;;;;;;5024381;28;20069;-63
2024/03/23 11:40:22;;;;;;;13.00;9.25;;;;;;;;;;5024116;28;20030;-61
2024/03/23 11:42:55;;;;;;;11.75;8.20;;;;;;;;;;5055732;28;20128;-61
2024/03/23 11:45:20;;;;;;;11.63;8.65;;;;;;;;;;5024321;28;20037;-59
2024/03/23 11:47:46;;;;;;;10.50;7.60;;;;;;;;;;5057433;28;20042;-60
2024/03/23 11:50:19;;;;;;;12.38;8.40;;;;;;;;;;5029831;28;20103;-59
2024/03/23 11:52:44;;;;;;;11.25;8.20;;;;;;;;;;5033593;28;20444;-62
2024/03/23 11:55:10;;;;;;;10.48;7.40;;;;;;;;;;5031933;28;20080;-63
2024/03/23 11:57:35;;;;;;;12.85;8.05;;;;;;;;;;5015898;28;20065;-64
2024/03/23 12:00:01;;;;;;;10.85;8.05;;;;;;;;;;5012678;28;20037;-63
2024/03/23 12:02:29;;;;;;;10.70;7.40;;;;;;;;;;5012452;28;20049;-63
2024/03/23 12:04:54;;;;;;;9.25;7.45;;;;;;;;;;5031095;28;20467;-62
2024/03/23 12:07:21;;;;;;;10.55;7.30;;;;;;;;;;5032290;28;20072;-65
2024/03/23 12:09:47;;;;;;;9.50;7.00;;;;;;;;;;5033658;28;20468;-66
2024/03/23 12:12:17;;;;;;;8.80;6.72;;;;;;;;;;5032527;28;20053;-64
2024/03/23 12:15:00;;;;;;;9.63;7.47;;;;;;;;;;5033853;28;20033;-63
2024/03/23 12:17:26;;;;;;;10.68;7.45;;;;;;;;;;5033724;28;20034;-63
2024/03/23 12:19:52;;;;;;;8.60;6.80;;;;;;;;;;5033701;28;20546;-64
2024/03/23 12:22:21;;;;;;;11.60;7.60;;;;;;;;;;5032121;28;20034;-64
2024/03/23 12:24:47;;;;;;;9.18;7.40;;;;;;;;;;5033636;28;20057;-63
2024/03/23 12:27:13;;;;;;;9.93;7.38;;;;;;;;;;5032332;28;20513;-66
2024/03/23 12:29:39;;;;;;;10.20;7.05;;;;;;;;;;5032861;28;20075;-63
2024/03/23 12:32:05;;;;;;;12.35;8.93;;;;;;;;;;5030009;28;20076;-67
2024/03/23 12:34:30;;;;;;;10.52;7.68;;;;;;;;;;5031524;28;20505;-65
2024/03/23 12:36:56;;;;;;;11.20;7.88;;;;;;;;;;5019991;28;20064;-68
2024/03/23 12:39:22;;;;;;;10.30;7.47;;;;;;;;;;4997632;28;20040;-64
2024/03/23 12:41:48;;;;;;;11.77;8.48;;;;;;;;;;5023545;28;20038;-65
2024/03/23 12:44:15;;;;;;;12.38;7.60;;;;;;;;;;5054646;28;20034;-65
2024/03/23 12:46:44;;;;;;;11.23;8.13;;;;;;;;;;5056134;28;20522;-64
2024/03/23 12:49:10;;;;;;;12.95;8.85;;;;;;;;;;5005540;28;20091;-66
2024/03/23 12:51:36;;;;;;;9.75;7.47;;;;;;;;;;5022788;28;20077;-63
2024/03/23 12:54:02;;;;;;;15.27;8.18;;;;;;;;;;5020146;28;20034;-63
2024/03/23 12:56:30;;;;;;;11.13;7.80;;;;;;;;;;5055724;28;20034;-63
2024/03/23 12:58:57;;;;;;;11.15;7.82;;;;;;;;;;5055942;28;20037;-63
2024/03/23 13:01:23;;;;;;;11.07;8.07;;;;;;;;;;5014503;28;20037;-64
2024/03/23 13:03:49;;;;;;;10.30;7.45;;;;;;;;;;5032280;28;20033;-64
2024/03/23 13:06:15;;;;;;;11.48;8.10;;;;;;;;;;5032444;28;20044;-64
2024/03/23 13:08:43;;;;;;;11.45;8.38;;;;;;;;;;5032424;28;20033;-63
2024/03/23 13:11:10;;;;;;;13.55;8.65;;;;;;;;;;5032488;28;20045;-64
2024/03/23 13:13:36;;;;;;;12.52;8.70;;;;;;;;;;5032539;28;20029;-62
2024/03/23 13:16:02;;;;;;;12.45;8.40;;;;;;;;;;5032669;28;20522;-64
2024/03/23 13:18:29;;;;;;;11.73;8.77;;;;;;;;;;5032509;28;20049;-63
2024/03/23 13:20:54;;;;;;;12.43;8.68;;;;;;;;;;5032297;28;20037;-64
2024/03/23 13:23:20;;;;;;;13.43;8.82;;;;;;;;;;5030802;28;20033;-63
2024/03/23 13:25:55;;;;;;;11.43;8.63;;;;;;;;;;5032014;28;20609;-63
2024/03/23 13:28:21;;;;;;;12.52;8.55;;;;;;;;;;5029165;28;20034;-65
2024/03/23 13:30:53;;;;;;;13.82;8.60;;;;;;;;;;5031620;28;20072;-64
2024/03/23 13:33:19;;;;;;;13.20;8.52;;;;;;;;;;5031924;28;20483;-63
2024/03/23 13:35:50;;;;;;;14.07;8.98;;;;;;;;;;5031780;28;20061;-64
2024/03/23 13:38:16;;;;;;;13.55;8.60;;;;;;;;;;5030831;28;20075;-63
2024/03/23 13:40:58;;;;;;;13.85;9.20;;;;;;;;;;5031898;28;20045;-66
2024/03/23 13:43:26;;;;;;;15.55;9.35;;;;;;;;;;5029838;28;20115;-65
2024/03/23 13:45:56;;;;;;;14.20;8.75;;;;;;;;;;5062757;28;20112;-65
2024/03/23 13:48:23;;;;;;;13.67;9.33;;;;;;;;;;5009592;28;20038;-63
2024/03/23 13:50:57;;;;;;;16.63;8.98;;;;;;;;;;5030900;28;20353;-65
2024/03/23 13:53:23;;;;;;;12.85;8.48;;;;;;;;;;5062434;28;20681;-64
2024/03/23 13:55:49;;;;;;;13.73;8.65;;;;;;;;;;5029940;28;20041;-63
2024/03/23 13:58:15;;;;;;;14.82;9.13;;;;;;;;;;5029475;28;20107;-64
2024/03/23 14:00:44;;;;;;;13.13;8.73;;;;;;;;;;5030502;28;20037;-64
2024/03/23 14:03:10;;;;;;;13.15;8.65;;;;;;;;;;5031560;28;20713;-64
2024/03/23 14:05:36;;;;;;;12.75;8.27;;;;;;;;;;5031438;28;20095;-66
2024/03/23 14:08:01;;;;;;;12.98;8.30;;;;;;;;;;5031644;28;20495;-63
2024/03/23 14:10:27;;;;;;;14.95;8.95;;;;;;;;;;5030383;28;20091;-63
2024/03/23 14:12:53;;;;;;;13.25;8.80;;;;;;;;;;5030028;28;20087;-64
2024/03/23 14:15:19;;;;;;;13.80;9.05;;;;;;;;;;5030334;28;20030;-64
2024/03/23 14:17:44;;;;;;;12.07;8.60;;;;;;;;;;5030095;28;20037;-65
2024/03/23 14:20:11;;;;;;;12.45;8.88;;;;;;;;;;5031207;28;20056;-65